createdAt,value
2023-05-03T00:00:32.304Z,100.00
2023-05-03T00:03:04.928Z,100.00
2023-05-03T00:05:33.324Z,100.00
2023-05-03T00:08:02.391Z,100.00
2023-05-03T00:10:30.678Z,100.00
2023-05-03T00:12:58.940Z,100.00
2023-05-03T00:15:27.345Z,100.00
2023-05-03T00:17:55.645Z,100.00
2023-05-03T00:20:25.462Z,100.00
2023-05-03T00:22:53.654Z,100.00
2023-05-03T00:25:21.839Z,100.00
2023-05-03T00:27:50.033Z,100.00
2023-05-03T00:30:19.490Z,100.00
2023-05-03T00:32:47.765Z,100.00
2023-05-03T00:35:16.028Z,100.00
2023-05-03T00:37:45.601Z,100.00
2023-05-03T00:40:16.528Z,100.00
2023-05-03T00:42:44.688Z,100.00
2023-05-03T00:45:13.123Z,100.00
2023-05-03T00:47:41.650Z,100.00
2023-05-03T00:50:12.123Z,100.00
2023-05-03T00:52:41.996Z,100.00
2023-05-03T00:55:12.915Z,100.00
2023-05-03T00:57:41.198Z,100.00
2023-05-03T01:00:10.835Z,100.00
2023-05-03T01:02:39.176Z,100.00
2023-05-03T01:05:08.534Z,100.00
2023-05-03T01:07:45.288Z,100.00
2023-05-03T01:10:24.479Z,100.00
2023-05-03T01:12:59.657Z,100.00
2023-05-03T01:15:38.372Z,100.00
2023-05-03T01:18:12.662Z,100.00
2023-05-03T01:20:44.967Z,100.00
2023-05-03T01:23:19.485Z,100.00
2023-05-03T01:25:49.407Z,100.00
2023-05-03T01:28:17.639Z,100.00
2023-05-03T01:30:47.700Z,100.00
2023-05-03T01:33:25.637Z,100.00
2023-05-03T01:35:57.092Z,100.00
2023-05-03T01:38:25.594Z,100.00
2023-05-03T01:40:58.070Z,100.00
2023-05-03T01:43:27.074Z,100.00
2023-05-03T01:45:55.838Z,100.00
2023-05-03T01:48:24.024Z,100.00
2023-05-03T01:50:52.224Z,100.00
2023-05-03T01:53:20.532Z,100.00
2023-05-03T01:55:48.713Z,100.00
2023-05-03T01:58:18.287Z,100.00
2023-05-03T02:00:46.931Z,100.00
2023-05-03T02:03:15.194Z,100.00
2023-05-03T02:05:43.380Z,100.00
2023-05-03T02:08:11.677Z,100.00
2023-05-03T02:10:39.880Z,100.00
2023-05-03T02:13:07.989Z,100.00
2023-05-03T02:15:37.650Z,100.00
2023-05-03T02:18:06.136Z,100.00
2023-05-03T02:20:37.873Z,100.00
2023-05-03T02:23:06.308Z,100.00
2023-05-03T02:25:34.508Z,100.00
2023-05-03T02:28:02.934Z,100.00
2023-05-03T02:30:31.179Z,100.00
2023-05-03T02:33:00.829Z,100.00
2023-05-03T02:35:29.139Z,100.00
2023-05-03T02:37:57.633Z,100.00
2023-05-03T02:40:25.878Z,99.04
2023-05-03T02:42:54.125Z,98.79
2023-05-03T02:45:22.394Z,100.00
2023-05-03T02:47:50.730Z,100.00
2023-05-03T02:50:20.386Z,100.00
2023-05-03T02:52:48.619Z,100.00
2023-05-03T02:55:16.908Z,100.00
2023-05-03T02:57:45.149Z,100.00
2023-05-03T03:00:15.424Z,100.00
2023-05-03T03:02:43.749Z,100.00
2023-05-03T03:05:12.377Z,100.00
2023-05-03T03:07:42.036Z,100.00
2023-05-03T03:10:11.301Z,100.00
2023-05-03T03:12:39.954Z,100.00
2023-05-03T03:15:09.540Z,100.00
2023-05-03T03:17:39.588Z,100.00
2023-05-03T03:20:11.553Z,100.00
2023-05-03T03:22:41.542Z,100.00
2023-05-03T03:25:11.149Z,100.00
2023-05-03T03:27:40.011Z,100.00
2023-05-03T03:30:10.556Z,100.00
2023-05-03T03:32:38.767Z,100.00
2023-05-03T03:35:08.653Z,100.00
2023-05-03T03:37:36.886Z,100.00
2023-05-03T03:40:08.273Z,100.00
2023-05-03T03:42:36.708Z,100.00
2023-05-03T03:45:05.879Z,100.00
2023-05-03T03:47:34.140Z,100.00
2023-05-03T03:50:02.488Z,100.00
2023-05-03T03:52:31.233Z,100.00
2023-05-03T03:54:59.456Z,100.00
2023-05-03T03:57:30.540Z,100.00
2023-05-03T03:59:59.365Z,100.00
2023-05-03T04:02:28.779Z,97.70
2023-05-03T04:04:57.107Z,98.91
2023-05-03T04:07:25.291Z,99.45
2023-05-03T04:09:53.443Z,98.20
2023-05-03T04:12:21.578Z,98.64
2023-05-03T04:14:51.412Z,97.35
2023-05-03T04:17:19.674Z,98.19
2023-05-03T04:19:48.203Z,97.38
2023-05-03T04:22:16.258Z,94.52
2023-05-03T04:24:46.025Z,93.92
2023-05-03T04:27:14.944Z,96.05
2023-05-03T04:29:43.349Z,95.32
2023-05-03T04:32:14.577Z,95.17
2023-05-03T04:34:43.510Z,94.61
2023-05-03T04:37:11.680Z,93.78
2023-05-03T04:39:39.968Z,93.40
2023-05-03T04:42:09.067Z,92.10
2023-05-03T04:44:37.400Z,92.59
2023-05-03T04:47:05.660Z,92.68
2023-05-03T04:49:35.811Z,92.02
2023-05-03T04:52:04.063Z,89.94
2023-05-03T04:54:32.333Z,89.17
2023-05-03T04:57:00.529Z,89.45
2023-05-03T04:59:28.793Z,88.70
2023-05-03T05:01:56.995Z,89.13
2023-05-03T05:04:25.361Z,87.28
2023-05-03T05:06:55.912Z,87.18
2023-05-03T05:09:26.049Z,87.58
2023-05-03T05:11:56.784Z,87.68
2023-05-03T05:16:50.923Z,86.29
2023-05-03T05:19:19.197Z,87.00
2023-05-03T05:21:48.215Z,87.10
2023-05-03T05:24:17.769Z,84.89
2023-05-03T05:26:46.032Z,83.95
2023-05-03T05:29:14.227Z,83.17
2023-05-03T05:31:42.534Z,83.78
2023-05-03T05:34:10.947Z,85.68
2023-05-03T05:36:39.085Z,85.16
2023-05-03T05:39:07.459Z,83.50
2023-05-03T05:41:37.315Z,81.72
2023-05-03T05:44:05.985Z,81.45
2023-05-03T05:46:34.224Z,81.12
2023-05-03T05:49:02.388Z,80.49
2023-05-03T05:51:31.840Z,79.26
2023-05-03T05:54:00.084Z,78.90
2023-05-03T05:56:28.367Z,79.11
2023-05-03T05:58:57.947Z,79.73
2023-05-03T06:01:27.127Z,78.07
2023-05-03T06:03:56.593Z,78.27
2023-05-03T06:06:25.028Z,76.99
2023-05-03T06:08:53.256Z,76.64
2023-05-03T06:11:21.602Z,76.97
2023-05-03T06:13:49.919Z,76.51
2023-05-03T06:16:19.562Z,75.49
2023-05-03T06:18:47.778Z,75.37
2023-05-03T06:21:16.252Z,76.18
2023-05-03T06:23:44.546Z,74.20
2023-05-03T06:26:12.769Z,73.85
2023-05-03T06:28:40.955Z,73.40
2023-05-03T06:31:09.412Z,73.48
2023-05-03T06:33:39.070Z,74.19
2023-05-03T06:36:08.401Z,73.43
2023-05-03T06:38:36.792Z,73.82
2023-05-03T06:41:05.030Z,73.41
2023-05-03T06:43:33.213Z,74.27
2023-05-03T06:46:01.442Z,71.95
2023-05-03T06:48:29.757Z,71.97
2023-05-03T06:50:59.471Z,71.68
2023-05-03T06:53:29.068Z,71.71
2023-05-03T06:55:57.531Z,71.85
2023-05-03T06:58:25.760Z,70.69
2023-05-03T07:00:54.606Z,71.25
2023-05-03T07:03:23.025Z,71.69
2023-05-03T07:05:51.297Z,70.21
2023-05-03T07:08:20.867Z,70.85
2023-05-03T07:10:49.042Z,71.10
2023-05-03T07:13:17.221Z,70.44
2023-05-03T07:15:46.185Z,70.36
2023-05-03T07:18:14.411Z,70.34
2023-05-03T07:20:42.847Z,70.92
2023-05-03T07:23:11.135Z,70.66
2023-05-03T07:25:40.912Z,70.49
2023-05-03T07:28:09.231Z,69.00
2023-05-03T07:30:37.489Z,70.51
2023-05-03T07:33:05.973Z,69.32
2023-05-03T07:35:34.296Z,69.63
2023-05-03T07:38:02.496Z,68.95
2023-05-03T07:40:33.305Z,68.51
2023-05-03T07:43:03.366Z,67.93
2023-05-03T07:45:31.674Z,67.82
2023-05-03T07:47:59.883Z,67.00
2023-05-03T07:50:28.064Z,68.06
2023-05-03T07:52:56.691Z,68.33
2023-05-03T07:55:25.292Z,67.26
2023-05-03T07:57:58.533Z,67.50
2023-05-03T08:00:28.460Z,67.91
2023-05-03T08:02:56.808Z,66.99
2023-05-03T08:05:25.482Z,65.07
2023-05-03T08:07:53.919Z,66.17
2023-05-03T08:10:22.679Z,66.35
2023-05-03T08:12:51.512Z,65.24
2023-05-03T08:15:19.891Z,65.76
2023-05-03T08:17:49.532Z,65.46
2023-05-03T08:20:17.755Z,64.74
2023-05-03T08:22:46.890Z,65.09
2023-05-03T08:25:17.098Z,65.34
2023-05-03T08:27:45.281Z,66.54
2023-05-03T08:30:13.755Z,64.85
2023-05-03T08:32:42.079Z,64.61
2023-05-03T08:35:14.069Z,65.44
2023-05-03T08:37:43.444Z,62.69
2023-05-03T08:40:13.740Z,63.08
2023-05-03T08:42:43.219Z,65.65
2023-05-03T08:45:14.357Z,62.50
2023-05-03T08:47:45.094Z,62.86
2023-05-03T08:50:16.602Z,61.95
2023-05-03T08:52:45.678Z,63.42
2023-05-03T08:55:14.190Z,63.06
2023-05-03T08:57:42.584Z,62.76
2023-05-03T09:00:12.993Z,62.97
2023-05-03T09:02:42.035Z,62.96
2023-05-03T09:05:41.458Z,63.22
2023-05-03T09:08:11.315Z,62.81
2023-05-03T09:10:41.355Z,61.72
2023-05-03T09:13:10.403Z,62.72
2023-05-03T09:15:38.698Z,62.73
2023-05-03T09:18:12.109Z,61.19
2023-05-03T09:20:42.797Z,61.52
2023-05-03T09:23:11.676Z,61.70
2023-05-03T09:25:47.386Z,60.10
2023-05-03T09:28:17.162Z,60.50
2023-05-03T09:30:45.875Z,60.65
2023-05-03T09:33:19.381Z,60.43
2023-05-03T09:35:59.764Z,59.81
2023-05-03T09:38:29.260Z,60.39
2023-05-03T09:40:57.768Z,59.36
2023-05-03T09:43:26.058Z,58.74
2023-05-03T09:45:54.391Z,57.51
2023-05-03T09:48:27.310Z,58.11
2023-05-03T09:50:55.551Z,56.34
2023-05-03T09:53:26.376Z,56.96
2023-05-03T09:55:56.181Z,58.23
2023-05-03T09:58:26.058Z,57.07
2023-05-03T10:00:55.754Z,56.12
2023-05-03T10:03:29.692Z,58.38
2023-05-03T10:05:59.258Z,57.94
2023-05-03T10:08:34.742Z,56.63
2023-05-03T10:11:04.942Z,58.03
2023-05-03T10:13:33.339Z,55.98
2023-05-03T10:16:06.964Z,55.87
2023-05-03T10:18:39.222Z,57.10
2023-05-03T10:21:13.621Z,57.60
2023-05-03T10:24:14.255Z,57.43
2023-05-03T10:26:43.628Z,56.45
2023-05-03T10:29:52.456Z,56.36
2023-05-03T10:32:34.267Z,55.80
2023-05-03T10:35:05.917Z,57.00
2023-05-03T10:37:36.288Z,54.70
2023-05-03T10:40:11.626Z,53.31
2023-05-03T10:42:40.424Z,54.10
2023-05-03T10:45:12.243Z,55.75
2023-05-03T10:47:40.910Z,53.54
2023-05-03T10:50:28.742Z,55.20
2023-05-03T10:52:56.956Z,53.82
2023-05-03T10:55:26.863Z,54.36
2023-05-03T10:57:56.673Z,53.12
2023-05-03T11:00:31.389Z,52.20
2023-05-03T11:03:13.197Z,51.96
2023-05-03T11:05:41.622Z,52.83
2023-05-03T11:08:14.120Z,51.74
2023-05-03T11:10:44.877Z,51.98
2023-05-03T11:13:13.219Z,51.89
2023-05-03T11:15:41.816Z,52.08
2023-05-03T11:18:11.612Z,53.26
2023-05-03T11:20:39.929Z,54.74
2023-05-03T11:23:08.596Z,54.52
2023-05-03T11:25:36.999Z,53.83
2023-05-03T11:28:07.250Z,54.26
2023-05-03T11:30:37.395Z,55.36
2023-05-03T11:33:06.045Z,57.23
2023-05-03T11:35:34.371Z,56.46
2023-05-03T11:38:03.119Z,56.99
2023-05-03T11:40:31.664Z,65.35
2023-05-03T11:43:01.084Z,69.21
2023-05-03T11:45:34.278Z,72.86
2023-05-03T11:48:02.886Z,73.22
2023-05-03T11:50:46.736Z,72.65
2023-05-03T11:53:15.662Z,75.64
2023-05-03T11:55:46.410Z,76.01
2023-05-03T11:58:15.456Z,76.66
2023-05-03T12:00:47.429Z,77.81
2023-05-03T12:03:20.283Z,78.78
2023-05-03T12:05:50.122Z,80.35
2023-05-03T12:08:20.876Z,79.82
2023-05-03T12:10:53.773Z,80.98
2023-05-03T12:13:29.886Z,82.76
2023-05-03T12:16:11.529Z,82.25
2023-05-03T12:18:50.297Z,83.48
2023-05-03T12:23:51.872Z,81.96
2023-05-03T12:26:21.586Z,85.32
2023-05-03T12:28:50.684Z,86.84
2023-05-03T12:31:22.737Z,88.28
2023-05-03T12:36:25.842Z,89.03
2023-05-03T12:38:56.507Z,91.80
2023-05-03T12:42:03.617Z,92.87
2023-05-03T12:44:17.242Z,94.14
2023-05-03T12:46:47.205Z,95.75
2023-05-03T12:49:15.880Z,97.07
2023-05-03T12:51:50.901Z,96.65
2023-05-03T12:54:33.798Z,96.83
2023-05-03T12:57:08.524Z,97.29
2023-05-03T12:59:41.674Z,98.95
2023-05-03T13:04:56.714Z,100.00
2023-05-03T13:07:29.544Z,99.59
2023-05-03T13:12:33.435Z,98.43
2023-05-03T13:15:04.055Z,97.46
2023-05-03T13:17:34.184Z,96.14
2023-05-03T13:20:02.710Z,95.27
2023-05-03T13:22:32.002Z,94.79
2023-05-03T13:25:00.335Z,96.13
2023-05-03T13:27:28.719Z,98.60
2023-05-03T13:29:57.252Z,99.44
2023-05-03T13:32:25.858Z,100.00
2023-05-03T13:34:55.511Z,100.00
2023-05-03T13:37:24.791Z,100.00
2023-05-03T13:39:53.190Z,99.64
2023-05-03T13:42:21.368Z,99.79
2023-05-03T13:44:49.597Z,99.33
2023-05-03T13:47:17.805Z,97.88
2023-05-03T13:49:46.130Z,98.95
2023-05-03T13:52:16.025Z,100.00
2023-05-03T13:54:44.515Z,100.00
2023-05-03T13:57:12.811Z,100.00
2023-05-03T13:59:41.630Z,97.21
2023-05-03T14:02:10.008Z,98.76
2023-05-03T14:04:38.382Z,98.00
2023-05-03T14:07:06.818Z,95.80
2023-05-03T14:09:39.574Z,93.95
2023-05-03T14:12:09.381Z,91.84
2023-05-03T14:14:38.867Z,95.05
2023-05-03T14:17:08.349Z,96.56
2023-05-03T14:19:37.696Z,96.19
2023-05-03T14:22:05.982Z,98.53
2023-05-03T14:24:34.226Z,100.00
2023-05-03T14:27:04.145Z,100.00
2023-05-03T14:29:32.437Z,100.00
2023-05-03T14:32:01.308Z,100.00
2023-05-03T14:34:30.250Z,100.00
2023-05-03T14:36:58.570Z,100.00
2023-05-03T14:39:26.873Z,100.00
2023-05-03T14:41:56.490Z,100.00
2023-05-03T14:44:28.105Z,100.00
2023-05-03T14:46:58.824Z,100.00
2023-05-03T14:49:27.336Z,100.00
2023-05-03T14:51:55.626Z,100.00
2023-05-03T14:54:24.339Z,100.00
2023-05-03T14:56:52.574Z,100.00
2023-05-03T14:59:21.028Z,100.00
2023-05-03T15:01:53.787Z,100.00
2023-05-03T15:04:23.772Z,100.00
2023-05-03T15:06:52.075Z,100.00
2023-05-03T15:09:20.759Z,100.00
2023-05-03T15:11:49.036Z,100.00
2023-05-03T15:14:17.632Z,100.00
2023-05-03T15:16:46.156Z,100.00
2023-05-03T15:19:16.340Z,100.00
2023-05-03T15:21:48.351Z,100.00
2023-05-03T15:24:16.920Z,100.00
2023-05-03T15:26:45.267Z,100.00
2023-05-03T15:29:13.676Z,100.00
2023-05-03T15:31:42.924Z,100.00
2023-05-03T15:34:12.649Z,100.00
2023-05-03T15:36:42.474Z,100.00
2023-05-03T15:39:10.759Z,100.00
2023-05-03T15:41:39.008Z,100.00
2023-05-03T15:44:09.818Z,100.00
2023-05-03T15:46:40.137Z,100.00
2023-05-03T15:49:10.761Z,100.00
2023-05-03T15:51:39.482Z,100.00
2023-05-03T15:54:09.334Z,100.00
2023-05-03T15:56:37.940Z,100.00
2023-05-03T15:59:06.244Z,100.00
2023-05-03T16:01:34.622Z,100.00
2023-05-03T16:04:02.869Z,100.00
2023-05-03T16:06:31.104Z,100.00
2023-05-03T16:08:59.341Z,100.00
2023-05-03T16:11:28.892Z,100.00
2023-05-03T16:13:57.241Z,100.00
2023-05-03T16:16:25.559Z,100.00
2023-05-03T16:18:53.943Z,100.00
2023-05-03T16:21:22.366Z,100.00
2023-05-03T16:23:51.209Z,100.00
2023-05-03T16:26:19.611Z,100.00
2023-05-03T16:28:50.122Z,100.00
2023-05-03T16:31:18.584Z,100.00
2023-05-03T16:33:46.972Z,100.00
2023-05-03T16:36:19.990Z,100.00
2023-05-03T16:38:48.784Z,100.00
2023-05-03T16:41:17.133Z,100.00
2023-05-03T16:43:45.362Z,100.00
2023-05-03T16:46:15.041Z,100.00
2023-05-03T16:48:43.304Z,100.00
2023-05-03T16:51:11.431Z,100.00
2023-05-03T16:53:39.685Z,100.00
2023-05-03T16:56:08.219Z,100.00
2023-05-03T16:58:36.475Z,100.00
2023-05-03T17:01:04.768Z,100.00
2023-05-03T17:03:34.496Z,100.00
2023-05-03T17:06:03.859Z,100.00
2023-05-03T17:08:32.969Z,100.00
2023-05-03T17:11:02.433Z,100.00
2023-05-03T17:13:30.693Z,100.00
2023-05-03T17:15:58.951Z,100.00
2023-05-03T17:18:27.517Z,100.00
2023-05-03T17:21:02.132Z,100.00
2023-05-03T17:23:30.506Z,100.00
2023-05-03T17:25:59.438Z,100.00
2023-05-03T17:28:28.135Z,100.00
2023-05-03T17:30:56.326Z,100.00
2023-05-03T17:33:25.397Z,100.00
2023-05-03T17:35:53.740Z,100.00
2023-05-03T17:38:23.452Z,100.00
2023-05-03T17:40:51.830Z,100.00
2023-05-03T17:43:20.134Z,98.26
2023-05-03T17:45:48.507Z,94.92
2023-05-03T17:48:16.930Z,96.06
2023-05-03T17:50:46.329Z,97.15
2023-05-03T17:53:14.609Z,93.60
2023-05-03T17:55:44.267Z,94.79
2023-05-03T17:58:12.497Z,93.32
2023-05-03T18:00:40.886Z,93.66
2023-05-03T18:03:10.610Z,94.47
2023-05-03T18:05:38.968Z,92.73
2023-05-03T18:08:07.560Z,87.15
2023-05-03T18:10:36.138Z,85.38
2023-05-03T18:13:05.938Z,89.13
2023-05-03T18:15:34.453Z,86.55
2023-05-03T18:18:02.781Z,84.00
2023-05-03T18:20:31.129Z,86.70
2023-05-03T18:22:59.461Z,88.58
2023-05-03T18:25:27.950Z,86.87
2023-05-03T18:27:57.393Z,88.81
2023-05-03T18:30:28.400Z,89.29
2023-05-03T18:32:56.859Z,86.67
2023-05-03T18:35:25.122Z,86.42
2023-05-03T18:37:54.074Z,86.46
2023-05-03T18:40:22.578Z,87.06
2023-05-03T18:42:50.842Z,88.14
2023-05-03T18:45:20.387Z,88.16
2023-05-03T18:47:50.169Z,87.71
2023-05-03T18:50:18.433Z,88.47
2023-05-03T18:52:46.728Z,88.12
2023-05-03T18:55:15.047Z,87.49
2023-05-03T18:57:44.459Z,89.22
2023-05-03T19:00:14.061Z,91.81
2023-05-03T19:02:42.494Z,88.81
2023-05-03T19:05:14.116Z,88.55
2023-05-03T19:07:43.188Z,90.52
2023-05-03T19:10:11.827Z,94.36
2023-05-03T19:12:40.908Z,97.90
2023-05-03T19:15:10.214Z,96.01
2023-05-03T19:17:40.516Z,95.23
2023-05-03T19:20:12.136Z,95.93
2023-05-03T19:22:40.663Z,96.15
2023-05-03T19:25:09.900Z,93.83
2023-05-03T19:27:38.179Z,89.93
2023-05-03T19:30:07.934Z,90.00
2023-05-03T19:32:39.205Z,90.87
2023-05-03T19:35:09.712Z,94.34
2023-05-03T19:37:39.480Z,95.63
2023-05-03T19:40:08.633Z,96.73
2023-05-03T19:42:37.116Z,97.99
2023-05-03T19:45:06.058Z,97.37
2023-05-03T19:47:34.432Z,98.80
2023-05-03T19:50:03.087Z,99.09
2023-05-03T19:52:31.721Z,99.94
2023-05-03T19:55:02.555Z,99.06
2023-05-03T19:57:30.749Z,96.64
2023-05-03T19:59:58.974Z,96.83
2023-05-03T20:02:27.452Z,96.76
2023-05-03T20:04:55.808Z,95.98
2023-05-03T20:07:24.093Z,93.62
2023-05-03T20:09:52.459Z,95.22
2023-05-03T20:12:22.132Z,95.37
2023-05-03T20:14:51.628Z,95.26
2023-05-03T20:17:20.049Z,94.73
2023-05-03T20:23:29.936Z,95.89
2023-05-03T20:26:31.064Z,96.62
2023-05-03T20:29:02.222Z,96.19
2023-05-03T20:31:31.686Z,94.50
2023-05-03T20:34:00.739Z,92.99
2023-05-03T20:36:31.648Z,91.66
2023-05-03T20:38:59.861Z,89.52
2023-05-03T20:41:28.159Z,88.19
2023-05-03T20:43:56.368Z,89.58
2023-05-03T20:46:26.198Z,88.40
2023-05-03T20:48:55.339Z,89.70
2023-05-03T20:51:24.707Z,89.93
2023-05-03T20:53:53.196Z,91.65
2023-05-03T20:56:21.303Z,93.04
2023-05-03T20:59:04.013Z,92.80
2023-05-03T21:01:33.843Z,90.96
2023-05-03T21:04:03.109Z,89.00
2023-05-03T21:06:31.325Z,88.37
2023-05-03T21:09:00.972Z,87.45
2023-05-03T21:11:29.177Z,88.65
2023-05-03T21:13:58.141Z,89.13
2023-05-03T21:16:28.024Z,91.12
2023-05-03T21:18:57.714Z,90.17
2023-05-03T21:21:26.117Z,87.99
2023-05-03T21:23:54.279Z,90.73
2023-05-03T21:26:23.017Z,91.86
2023-05-03T21:28:51.715Z,90.64
2023-05-03T21:31:20.115Z,91.40
2023-05-03T21:33:48.605Z,94.93
2023-05-03T21:36:18.229Z,97.50
2023-05-03T21:38:46.598Z,95.98
2023-05-03T21:41:14.886Z,97.53
2023-05-03T21:43:43.104Z,97.62
2023-05-03T21:46:12.518Z,96.14
2023-05-03T21:48:41.155Z,96.85
2023-05-03T21:51:09.961Z,94.94
2023-05-03T21:53:39.695Z,95.92
2023-05-03T21:56:08.153Z,95.26
2023-05-03T21:58:36.326Z,96.13
2023-05-03T22:01:04.646Z,97.90
2023-05-03T22:03:33.091Z,99.70
2023-05-03T22:06:19.562Z,100.00
2023-05-03T22:08:49.885Z,100.00
2023-05-03T22:11:18.082Z,99.70
2023-05-03T22:14:03.005Z,100.00
2023-05-03T22:16:34.953Z,99.86
2023-05-03T22:19:03.317Z,100.00
2023-05-03T22:21:32.187Z,100.00
2023-05-03T22:24:01.948Z,100.00
2023-05-03T22:26:30.083Z,97.69
2023-05-03T22:28:58.356Z,96.32
2023-05-03T22:31:26.911Z,97.16
2023-05-03T22:33:55.149Z,95.96
2023-05-03T22:36:23.501Z,95.64
2023-05-03T22:38:55.326Z,96.47
2023-05-03T22:41:25.326Z,97.12
2023-05-03T22:43:53.696Z,97.01
2023-05-03T22:46:22.042Z,95.63
2023-05-03T22:48:50.175Z,95.19
2023-05-03T22:51:18.426Z,95.01
2023-05-03T22:53:46.664Z,94.76
2023-05-03T22:56:15.833Z,96.12
2023-05-03T22:58:45.680Z,97.62
2023-05-03T23:01:15.058Z,97.95
2023-05-03T23:03:43.803Z,98.15
2023-05-03T23:06:12.049Z,98.88
2023-05-03T23:08:40.274Z,99.98
2023-05-03T23:11:08.765Z,100.00
2023-05-03T23:13:37.057Z,100.00
2023-05-03T23:16:08.109Z,100.00
2023-05-03T23:18:36.335Z,100.00
2023-05-03T23:21:04.787Z,100.00
2023-05-03T23:23:32.946Z,100.00
2023-05-03T23:26:01.176Z,100.00
2023-05-03T23:28:29.725Z,100.00
2023-05-03T23:30:58.354Z,100.00
2023-05-03T23:33:28.560Z,100.00
2023-05-03T23:35:56.926Z,100.00
2023-05-03T23:38:25.177Z,100.00
2023-05-03T23:40:53.375Z,100.00
2023-05-03T23:43:21.599Z,100.00
2023-05-03T23:45:49.853Z,100.00
2023-05-03T23:48:18.061Z,100.00
2023-05-03T23:50:47.623Z,100.00
2023-05-03T23:53:15.810Z,100.00
2023-05-03T23:55:43.922Z,100.00
2023-05-03T23:58:12.155Z,100.00
